Time;durP1;ratioP1;P1;durP2;ratioP2;P2;SDS_P1;SDS_P2;PMS_P1;PMS_P2;Temp;Humidity;BMP_temperature;BMP_pressure;BME280_temperature;BME280_humidity;BME280_pressure;Samples;Min_cycle;Max_cycle;Signal;HPM_P1;HPM_P2
2022/05/15 04:04:35;;;;;;;6.67;5.33;;;8.70;99.90;;;;;;5723338;24;20195;-75
2022/05/15 04:07:09;;;;;;;6.60;5.10;;;8.70;99.90;;;;;;4858277;29;20614;-75
2022/05/15 04:09:40;;;;;;;6.33;5.50;;;8.70;99.90;;;;;;4860893;29;20749;-75
2022/05/15 04:12:09;;;;;;;6.63;5.50;;;8.80;99.90;;;;;;4874384;29;20201;-73
2022/05/15 04:14:38;;;;;;;9.27;5.60;;;8.80;99.90;;;;;;4856387;29;20273;-76
2022/05/15 04:17:08;;;;;;;6.33;5.20;;;8.90;99.90;;;;;;4862637;29;20235;-76
2022/05/15 04:19:38;;;;;;;8.27;5.50;;;8.90;99.90;;;;;;4862380;29;20239;-74
2022/05/15 04:22:12;;;;;;;7.33;4.83;;;8.90;99.90;;;;;;4862661;29;20240;-73
2022/05/15 04:24:40;;;;;;;6.17;4.80;;;8.90;99.90;;;;;;4862788;29;20215;-73
2022/05/15 04:27:09;;;;;;;7.53;4.43;;;8.90;99.90;;;;;;4862082;29;20309;-76
2022/05/15 04:29:37;;;;;;;8.77;5.10;;;9.00;99.90;;;;;;4862447;29;20760;-74
2022/05/15 04:32:06;;;;;;;6.83;4.97;;;9.00;99.90;;;;;;4862472;29;20319;-74
2022/05/15 04:34:34;;;;;;;6.23;4.53;;;9.10;99.90;;;;;;4862350;29;20246;-74
2022/05/15 04:37:04;;;;;;;6.50;4.47;;;9.10;99.90;;;;;;4862852;29;20318;-74
2022/05/15 04:39:34;;;;;;;7.03;5.07;;;9.20;99.90;;;;;;4862605;29;20219;-75
2022/05/15 04:42:03;;;;;;;7.13;4.70;;;9.30;99.90;;;;;;4862849;29;20298;-77
2022/05/15 04:44:31;;;;;;;5.63;4.70;;;9.30;99.90;;;;;;4862540;29;20292;-74
2022/05/15 04:46:59;;;;;;;8.87;4.90;;;9.40;99.90;;;;;;4862710;29;20215;-74
2022/05/15 04:49:27;;;;;;;5.70;4.90;;;9.40;99.90;;;;;;4862660;29;20219;-74
2022/05/15 04:51:55;;;;;;;6.27;4.50;;;9.50;99.90;;;;;;4862118;29;20401;-75
2022/05/15 04:54:25;;;;;;;5.77;4.47;;;9.50;99.90;;;;;;4862870;29;20219;-73
2022/05/15 04:56:53;;;;;;;6.83;4.90;;;9.70;99.90;;;;;;4862818;29;20215;-75
2022/05/15 04:59:21;;;;;;;6.23;4.40;;;9.70;99.90;;;;;;4861945;29;20255;-74
2022/05/15 05:01:49;;;;;;;6.37;4.60;;;9.80;99.90;;;;;;4862104;29;20393;-73
2022/05/15 05:04:21;;;;;;;6.70;4.53;;;9.90;99.90;;;;;;4861898;29;20294;-73
2022/05/15 05:06:49;;;;;;;6.63;4.80;;;9.90;99.90;;;;;;4863022;29;20272;-73
2022/05/15 05:09:18;;;;;;;5.43;4.43;;;10.00;99.90;;;;;;4862105;29;20307;-73
2022/05/15 05:11:47;;;;;;;6.90;4.50;;;10.10;99.90;;;;;;4862002;29;20235;-75
2022/05/15 05:14:15;;;;;;;6.77;4.73;;;10.10;99.90;;;;;;4862044;29;20697;-75
2022/05/15 05:16:44;;;;;;;7.97;4.77;;;10.20;99.90;;;;;;4862444;29;20269;-75
2022/05/15 05:19:12;;;;;;;6.23;4.70;;;10.30;99.90;;;;;;4863459;29;20261;-76
2022/05/15 05:21:40;;;;;;;4.60;4.13;;;10.40;99.90;;;;;;4865809;29;20267;-77
2022/05/15 05:24:09;;;;;;;5.87;4.50;;;10.50;99.90;;;;;;4866820;29;20231;-74
2022/05/15 05:26:37;;;;;;;4.67;4.07;;;10.60;99.90;;;;;;4865386;29;20211;-74
2022/05/15 05:29:08;;;;;;;6.63;4.70;;;10.70;99.90;;;;;;4862453;29;20305;-75
2022/05/15 05:31:36;;;;;;;7.13;4.33;;;10.90;99.90;;;;;;4861418;29;20705;-76
2022/05/15 05:34:04;;;;;;;6.93;4.53;;;10.90;99.90;;;;;;4862240;29;20215;-75
2022/05/15 05:36:32;;;;;;;8.60;5.00;;;11.10;99.90;;;;;;4862603;29;20239;-75
2022/05/15 05:39:00;;;;;;;5.57;4.90;;;11.30;99.90;;;;;;4861626;29;20219;-78
2022/05/15 05:41:31;;;;;;;6.77;4.70;;;11.40;99.90;;;;;;4862117;29;20246;-74
2022/05/15 16:51:31;;;;;;;2.90;2.03;;;23.60;64.90;;;;;;5414190;23;20242;-77
2022/05/15 16:54:02;;;;;;;2.33;1.60;;;23.40;65.70;;;;;;4844135;29;20211;-77
2022/05/15 16:56:30;;;;;;;3.20;2.00;;;23.30;64.30;;;;;;4843194;29;20215;-72
2022/05/15 16:58:58;;;;;;;3.37;2.00;;;23.30;66.10;;;;;;4862297;29;20215;-77
2022/05/15 17:01:27;;;;;;;4.33;2.00;;;23.30;68.40;;;;;;4864569;29;20211;-77
2022/05/15 17:03:55;;;;;;;3.33;1.83;;;23.20;66.90;;;;;;4863068;29;20294;-77
2022/05/15 17:06:26;;;;;;;4.97;1.87;;;23.10;66.00;;;;;;4861886;29;20677;-76
2022/05/15 17:08:55;;;;;;;3.70;1.83;;;23.10;64.50;;;;;;4861918;29;20376;-77
2022/05/15 17:11:24;;;;;;;3.33;1.60;;;23.00;64.40;;;;;;4861561;29;20300;-76
2022/05/15 17:13:52;;;;;;;3.17;1.60;;;23.00;64.80;;;;;;4861398;29;20294;-76
2022/05/15 17:16:20;;;;;;;2.67;1.83;;;23.00;65.40;;;;;;4861430;29;20290;-77
2022/05/15 17:18:49;;;;;;;5.93;2.00;;;22.90;66.00;;;;;;4861364;29;20218;-76
2022/05/15 17:21:17;;;;;;;4.23;2.00;;;22.90;67.40;;;;;;4861070;29;20341;-75
2022/05/15 17:23:45;;;;;;;4.27;1.80;;;22.90;68.10;;;;;;4861406;29;20261;-77
2022/05/15 17:26:14;;;;;;;3.80;1.77;;;22.90;69.20;;;;;;4861118;29;20582;-75
2022/05/15 17:34:19;;;;;;;3.00;1.73;;;22.60;69.20;;;;;;4860789;29;20286;-75
2022/05/15 17:36:49;;;;;;;2.70;1.77;;;22.60;70.00;;;;;;4860610;29;20293;-76
2022/05/15 17:39:18;;;;;;;5.23;1.70;;;22.50;68.90;;;;;;4860144;29;20211;-72
2022/05/15 17:41:50;;;;;;;3.23;1.70;;;22.40;68.90;;;;;;4860738;29;20305;-75
2022/05/15 17:44:18;;;;;;;3.97;1.90;;;22.40;69.70;;;;;;4860731;29;20227;-77
2022/05/15 17:46:46;;;;;;;3.67;2.00;;;22.40;70.80;;;;;;4842406;29;20224;-73
2022/05/15 17:49:14;;;;;;;2.80;1.77;;;22.30;72.00;;;;;;4842146;29;20693;-78
2022/05/15 17:51:42;;;;;;;3.70;1.90;;;22.30;72.30;;;;;;4842350;29;20243;-77
2022/05/15 17:54:11;;;;;;;3.43;1.80;;;22.20;72.70;;;;;;4842211;29;20258;-76
2022/05/15 17:56:40;;;;;;;3.00;1.90;;;22.10;72.80;;;;;;4842079;29;20647;-76
2022/05/15 17:59:11;;;;;;;3.60;2.00;;;22.00;73.50;;;;;;4841983;29;20591;-75
2022/05/15 18:01:39;;;;;;;3.80;2.27;;;22.00;74.90;;;;;;4842565;29;20246;-74
2022/05/15 18:04:08;;;;;;;4.53;2.10;;;21.90;75.50;;;;;;4842934;29;20268;-76
2022/05/15 18:06:37;;;;;;;5.17;1.83;;;21.80;75.60;;;;;;4842413;29;20219;-74
2022/05/15 18:09:06;;;;;;;5.47;2.27;;;21.80;75.70;;;;;;4841506;29;20215;-77
2022/05/15 18:11:38;;;;;;;3.40;2.00;;;21.70;76.50;;;;;;4842654;29;20211;-77
2022/05/15 18:14:06;;;;;;;2.80;1.97;;;21.60;77.10;;;;;;4844155;29;20286;-77
2022/05/15 18:16:35;;;;;;;2.93;1.97;;;21.50;78.00;;;;;;4841939;29;20368;-76
2022/05/15 18:19:04;;;;;;;4.60;2.10;;;21.40;78.80;;;;;;4841813;29;20700;-76
2022/05/15 18:21:32;;;;;;;2.97;1.90;;;21.30;79.30;;;;;;4840670;29;20235;-77
2022/05/15 18:24:00;;;;;;;3.57;2.00;;;21.20;79.70;;;;;;4841896;29;20208;-77
2022/05/15 18:26:29;;;;;;;2.77;1.70;;;21.10;80.90;;;;;;4841040;29;20239;-77
2022/05/15 18:28:57;;;;;;;4.03;2.00;;;20.90;81.20;;;;;;4841489;29;20227;-76
2022/05/15 18:31:26;;;;;;;4.33;2.30;;;20.80;81.30;;;;;;4841684;29;20614;-76
2022/05/15 18:33:56;;;;;;;6.33;2.40;;;20.70;82.00;;;;;;4842445;29;20750;-74
2022/05/15 18:36:25;;;;;;;4.47;2.00;;;20.60;81.60;;;;;;4841454;29;20227;-74
2022/05/15 18:38:53;;;;;;;3.30;1.97;;;20.50;82.40;;;;;;4841564;29;20219;-74
2022/05/15 18:41:23;;;;;;;6.17;2.70;;;20.40;83.00;;;;;;4854420;29;20268;-78
2022/05/15 18:43:52;;;;;;;5.20;2.30;;;20.30;84.10;;;;;;4851110;29;20769;-76
2022/05/15 18:46:21;;;;;;;5.03;2.10;;;20.20;84.30;;;;;;4840612;29;20272;-76
2022/05/15 18:48:49;;;;;;;3.30;2.20;;;20.00;85.50;;;;;;4841958;29;20212;-76
2022/05/15 18:56:50;;;;;;;3.33;2.30;;;19.70;88.60;;;;;;4850592;29;20210;-76
2022/05/15 18:59:18;;;;;;;4.47;2.60;;;19.60;89.70;;;;;;4859739;29;20634;-76
2022/05/15 19:01:46;;;;;;;5.07;2.30;;;19.40;90.30;;;;;;4860430;29;20226;-77
2022/05/15 19:04:18;;;;;;;3.77;2.27;;;19.30;91.30;;;;;;4841247;29;20284;-77
2022/05/15 19:06:47;;;;;;;6.60;2.73;;;19.20;91.90;;;;;;4841860;29;20302;-76
2022/05/15 19:09:15;;;;;;;6.40;3.00;;;19.00;92.80;;;;;;4840894;29;20303;-76
2022/05/15 19:11:43;;;;;;;5.63;2.93;;;18.90;93.70;;;;;;4851930;29;20238;-77
2022/05/15 19:14:12;;;;;;;5.80;2.90;;;18.70;94.60;;;;;;4854937;29;20227;-77
2022/05/15 19:16:41;;;;;;;7.23;3.43;;;18.60;95.70;;;;;;4859179;29;20269;-77
2022/05/15 19:19:09;;;;;;;9.53;3.70;;;18.40;96.80;;;;;;4861026;29;20222;-75
2022/05/15 19:21:38;;;;;;;7.33;3.40;;;18.30;97.90;;;;;;4864400;29;20219;-75
2022/05/15 19:24:08;;;;;;;6.57;3.23;;;18.20;98.90;;;;;;4859572;29;20209;-75
2022/05/15 19:26:36;;;;;;;7.63;3.20;;;18.10;99.90;;;;;;4866249;29;20291;-76
2022/05/15 19:29:05;;;;;;;6.60;3.53;;;18.00;99.90;;;;;;4863990;29;20246;-73
2022/05/15 19:31:33;;;;;;;6.13;3.30;;;17.90;99.90;;;;;;4864141;29;20546;-73
2022/05/15 19:34:02;;;;;;;5.07;3.10;;;17.80;99.90;;;;;;4846795;29;20244;-77
2022/05/15 19:36:30;;;;;;;5.93;3.00;;;17.70;99.90;;;;;;4858160;29;20306;-77
2022/05/15 19:38:58;;;;;;;4.90;3.07;;;17.60;99.90;;;;;;4863043;29;20284;-76
2022/05/15 19:41:28;;;;;;;5.37;2.67;;;17.50;99.90;;;;;;4862688;29;20214;-77
2022/05/15 19:43:56;;;;;;;7.23;2.90;;;17.40;99.90;;;;;;4839681;29;20738;-78
2022/05/15 19:46:24;;;;;;;7.83;3.27;;;17.30;99.90;;;;;;4843789;29;20243;-77
2022/05/15 19:48:52;;;;;;;6.03;3.50;;;17.20;99.90;;;;;;4844520;29;20226;-76
2022/05/15 19:51:21;;;;;;;8.77;4.40;;;17.10;99.90;;;;;;4845534;29;20239;-78
2022/05/15 19:53:49;;;;;;;5.90;4.00;;;17.00;99.90;;;;;;4845144;29;20263;-75
2022/05/15 19:56:28;;;;;;;7.17;3.63;;;17.00;99.90;;;;;;4845411;29;20249;-74
2022/05/15 19:58:56;;;;;;;7.43;3.70;;;16.90;99.90;;;;;;4845411;29;20223;-77
2022/05/15 20:01:26;;;;;;;6.90;3.10;;;16.80;99.90;;;;;;4845339;29;20220;-76
2022/05/15 20:03:54;;;;;;;5.93;3.13;;;16.70;99.90;;;;;;4844649;29;20240;-76
2022/05/15 20:12:01;;;;;;;7.30;3.20;;;16.40;99.90;;;;;;4844322;29;20200;-76
2022/05/15 20:14:30;;;;;;;6.33;3.10;;;16.40;99.90;;;;;;4844036;29;20267;-77
2022/05/15 20:16:58;;;;;;;7.67;3.50;;;16.30;99.90;;;;;;4843660;29;20254;-78
2022/05/15 20:19:26;;;;;;;6.30;3.30;;;16.10;99.90;;;;;;4843574;29;20311;-76
2022/05/15 20:21:54;;;;;;;7.57;4.30;;;16.00;99.90;;;;;;4843484;29;20307;-75
2022/05/15 20:24:22;;;;;;;8.03;4.00;;;16.00;99.90;;;;;;4843690;29;20242;-77
2022/05/15 20:26:51;;;;;;;5.43;3.57;;;15.90;99.90;;;;;;4843774;29;20634;-77
2022/05/15 20:29:20;;;;;;;6.93;3.03;;;15.80;99.90;;;;;;4843559;29;20215;-78
2022/05/15 20:31:48;;;;;;;5.80;3.50;;;15.80;99.90;;;;;;4841812;29;20211;-78
2022/05/15 20:34:19;;;;;;;4.77;3.07;;;15.80;99.90;;;;;;4842451;29;20581;-78
2022/05/15 20:36:49;;;;;;;5.30;3.40;;;15.80;99.90;;;;;;4825956;29;20203;-77
2022/05/15 20:39:19;;;;;;;7.23;3.13;;;15.60;99.90;;;;;;4825493;29;20228;-77
2022/05/15 20:41:48;;;;;;;4.53;3.40;;;15.60;99.90;;;;;;4839022;29;20215;-78
2022/05/15 20:44:16;;;;;;;5.17;3.20;;;15.50;99.90;;;;;;4843333;29;20272;-76
2022/05/15 20:46:46;;;;;;;8.30;3.20;;;15.50;99.90;;;;;;4843934;29;20219;-76
2022/05/15 20:49:15;;;;;;;5.83;3.43;;;15.40;99.90;;;;;;4843886;29;20615;-78
2022/05/15 20:51:44;;;;;;;6.87;3.80;;;15.40;99.90;;;;;;4843351;29;20238;-78
2022/05/15 20:54:14;;;;;;;5.60;3.60;;;15.30;99.90;;;;;;4843512;29;20235;-78
2022/05/15 20:56:43;;;;;;;8.10;3.73;;;15.20;99.90;;;;;;4843747;29;20231;-76
2022/05/15 20:59:13;;;;;;;6.73;3.90;;;15.10;99.90;;;;;;4844704;29;20223;-76
2022/05/15 21:01:41;;;;;;;7.40;4.00;;;15.10;99.90;;;;;;4846203;29;20247;-75
2022/05/15 21:04:14;;;;;;;6.37;3.93;;;15.00;99.90;;;;;;4846620;29;20306;-76
2022/05/15 21:06:42;;;;;;;7.50;3.47;;;15.00;99.90;;;;;;4847897;29;20216;-78
2022/05/15 21:09:11;;;;;;;6.30;3.83;;;14.90;99.90;;;;;;4845151;29;20854;-78
2022/05/15 21:11:39;;;;;;;7.93;3.80;;;14.90;99.90;;;;;;4845914;29;20239;-77
2022/05/15 21:14:11;;;;;;;7.90;4.20;;;14.80;99.90;;;;;;4844774;29;20255;-75
2022/05/15 21:16:40;;;;;;;7.90;3.67;;;14.70;99.90;;;;;;4844912;29;20258;-77
2022/05/15 21:19:08;;;;;;;7.93;3.90;;;14.70;99.90;;;;;;4843960;29;20754;-76
2022/05/15 21:21:38;;;;;;;5.07;3.50;;;14.60;99.90;;;;;;4843226;29;20270;-76
2022/05/15 21:24:07;;;;;;;7.97;3.90;;;14.60;99.90;;;;;;4843360;29;20215;-77
2022/05/15 21:26:36;;;;;;;6.70;4.20;;;14.50;99.90;;;;;;4843383;29;20299;-77
2022/05/15 21:29:05;;;;;;;5.23;3.60;;;14.40;99.90;;;;;;4842705;29;20216;-78
2022/05/15 21:31:33;;;;;;;8.70;4.60;;;14.30;99.90;;;;;;4843065;29;20270;-77
2022/05/15 21:34:01;;;;;;;6.47;4.43;;;14.30;99.90;;;;;;4842652;29;20342;-77
2022/05/15 21:36:29;;;;;;;7.43;4.73;;;14.20;99.90;;;;;;4842825;29;20675;-78
2022/05/15 21:44:34;;;;;;;6.83;4.87;;;14.10;99.90;;;;;;4841717;29;20677;-77
2022/05/15 21:47:02;;;;;;;6.60;4.70;;;14.10;99.90;;;;;;4842180;29;20216;-78
2022/05/15 21:49:30;;;;;;;6.83;4.60;;;14.10;99.90;;;;;;4842010;29;20311;-77
2022/05/15 21:51:58;;;;;;;5.93;4.90;;;14.10;99.90;;;;;;4841426;29;20327;-78
2022/05/15 21:54:28;;;;;;;7.30;4.80;;;14.10;99.90;;;;;;4841532;29;20308;-81
2022/05/15 21:56:56;;;;;;;8.50;5.20;;;14.00;99.90;;;;;;4841716;29;20239;-75
2022/05/15 22:02:10;;;;;;;9.47;5.33;;;14.00;99.90;;;;;;4823722;29;20240;-80
2022/05/15 22:04:39;;;;;;;12.63;5.20;;;13.90;99.90;;;;;;4823447;29;20243;-77
2022/05/15 22:07:07;;;;;;;7.10;5.10;;;13.90;99.90;;;;;;4823502;29;20217;-78
2022/05/15 22:09:36;;;;;;;9.60;5.73;;;13.90;99.90;;;;;;4823988;29;20693;-74
2022/05/15 22:12:05;;;;;;;10.30;6.17;;;13.80;99.90;;;;;;4842215;29;20243;-77
2022/05/15 22:14:33;;;;;;;8.73;6.50;;;13.80;99.90;;;;;;4841909;29;20231;-78
2022/05/15 22:17:01;;;;;;;9.77;6.43;;;13.70;99.90;;;;;;4842786;29;20255;-77
2022/05/15 22:19:29;;;;;;;8.77;6.30;;;13.70;99.90;;;;;;4844431;29;20219;-77
2022/05/15 22:21:57;;;;;;;9.27;6.30;;;13.60;99.90;;;;;;4843484;29;20222;-77
2022/05/15 22:24:25;;;;;;;9.93;6.00;;;13.60;99.90;;;;;;4841283;29;20250;-79
2022/05/15 22:26:55;;;;;;;9.00;5.37;;;13.50;99.90;;;;;;4841286;29;20306;-77
